Wednesday, August 20, 2014, 6:43 AM EDT

KOFP, Hanover County Municipal

Location: Ashland, VA, United States Lat: 37.7
Local Time: 6:43 AM EDT (10:43 GMT) Lon: -77.433
Time Zone: US/Eastern Elev: 203 ft

Show me the last for .
Show Decoded

2014-08-20 06:23 METAR KOFP 201023Z AUTO 00000KT 1 1/4SM BR SCT009 19/19 A2997 RMK AO2 T01890189
                 =
2014-08-20 05:54 METAR KOFP 200954Z AUTO 00000KT 1/4SM FG VV008 19/19 A2996 RMK AO2 SLP143
                 T01890189 =
2014-08-20 05:14 METAR KOFP 200914Z AUTO 00000KT 1/2SM FG VV008 19/19 A2994 RMK AO2 T01940194 =
2014-08-20 04:54 METAR KOFP 200854Z AUTO 00000KT 1SM BR VV008 19/19 A2994 RMK AO2 SLP135
                 T01940194 52003 =
2014-08-20 04:31 METAR KOFP 200831Z AUTO 00000KT 1/4SM FG VV008 20/19 A2993 RMK AO2 T02000194 =
2014-08-20 03:54 METAR KOFP 200754Z AUTO 00000KT 1/2SM FG SCT005 OVC060 20/20 A2994 RMK AO2
                 SLP135 T02000200 =
2014-08-20 03:32 METAR KOFP 200732Z AUTO 00000KT 1/2SM FG FEW002 BKN007 20/19 A2993 RMK AO2
                 T02000194 =
2014-08-20 03:21 METAR KOFP 200721Z AUTO 00000KT 1 1/4SM BR FEW002 BKN007 20/20 A2993 RMK AO2
                 T02000200 =
2014-08-20 03:16 METAR KOFP 200716Z AUTO 00000KT 2SM BR SCT009 20/20 A2993 RMK AO2 T02000200 =
2014-08-20 03:01 METAR KOFP 200701Z AUTO 00000KT 1 3/4SM BR FEW008 20/20 A2993 RMK AO2 T02000200
                 =
2014-08-20 02:54 METAR KOFP 200654Z AUTO 00000KT 3SM BR FEW007 21/21 A2993 RMK AO2 SLP132
                 T02060206 =
2014-08-20 02:45 METAR KOFP 200645Z AUTO 00000KT 1 1/2SM BR BKN007 21/20 A2993 RMK AO2 VIS 1/2V3
                 T02060200 =
2014-08-20 01:54 METAR KOFP 200554Z AUTO 00000KT 1/4SM FG VV008 21/21 A2993 RMK AO2 SLP132 60005
                 T02060206 10239 20206 58004 =
2014-08-20 01:01 METAR KOFP 200501Z AUTO 00000KT 1/4SM FG VV009 21/21 A2993 RMK AO2 T02060206 =
2014-08-20 00:54 METAR KOFP 200454Z AUTO 00000KT 1/4SM FG VV010 21/21 A2993 RMK AO2 SLP135
                 T02110211 402890206 =
2014-08-20 00:19 METAR KOFP 200419Z AUTO 00000KT 1/4SM FG VV010 22/21 A2993 RMK AO2 T02170211 =
2014-08-19 23:29 METAR KOFP 200329Z AUTO 00000KT 2SM BR CLR 22/22 A2993 RMK AO2 VIS 1/2V5
                 T02220217 =
2014-08-19 23:21 METAR KOFP 200321Z AUTO 00000KT 1 1/4SM BR CLR 22/22 A2993 RMK AO2 VIS 1/2V4
                 T02220217 =
2014-08-19 23:11 METAR KOFP 200311Z AUTO 00000KT 3/4SM BR FEW011 SCT029 22/22 A2993 RMK AO2
                 T02220217 =
2014-08-19 23:06 METAR KOFP 200306Z AUTO 00000KT 1 3/4SM BR SCT029 22/22 A2993 RMK AO2 T02220222
                 =
2014-08-19 22:54 METAR KOFP 200254Z AUTO 00000KT 6SM BR SCT029 BKN041 23/22 A2993 RMK AO2
                 RAB12E40 SLP133 P0005 60005 T02280222 51010 =
2014-08-19 22:43 METAR KOFP 200243Z AUTO 00000KT 7SM FEW019 SCT027 OVC044 23/22 A2993 RMK AO2
                 RAB12E40 P0005 T02280222 =
2014-08-19 22:04 METAR KOFP 200204Z AUTO 00000KT 3SM BR FEW015 BKN026 BKN037 22/22 A2993 RMK AO2
                 T02220222 =
2014-08-19 21:58 METAR KOFP 200158Z AUTO 00000KT 1 1/2SM BR FEW003 SCT018 BKN029 22/22 A2992 RMK
                 AO2 T02220222 =
2014-08-19 21:54 METAR KOFP 200154Z AUTO 00000KT 3/4SM BR SCT003 SCT018 BKN029 22/22 A2992 RMK
                 AO2 SLP131 T02220217 =
2014-08-19 21:51 METAR KOFP 200151Z AUTO 00000KT 1/2SM FG SCT003 SCT029 BKN037 22/22 A2992 RMK
                 AO2 =
2014-08-19 21:31 METAR KOFP 200131Z AUTO 00000KT 1/4SM FG VV003 22/22 A2992 RMK AO2 T02220222 =
2014-08-19 21:24 METAR KOFP 200124Z AUTO 00000KT 1SM BR VV003 23/22 A2992 RMK AO2 T02280222 =
2014-08-19 21:04 METAR KOFP 200104Z AUTO 00000KT 1 3/4SM BR FEW003 23/22 A2990 RMK AO2 VIS 3/4V4
                 T02280222 =
2014-08-19 20:54 METAR KOFP 200054Z AUTO 00000KT 2SM BR FEW003 FEW026 23/22 A2990 RMK AO2 VIS 1
                 1/4V4 SLP123 T02280222 =
2014-08-19 20:32 METAR KOFP 200032Z AUTO 00000KT 1 3/4SM BR FEW003 23/23 A2989 RMK AO2 T02330228
                 =
2014-08-19 19:54 METAR KOFP 192354Z AUTO 00000KT 6SM BR FEW120 24/23 A2987 RMK AO2 SLP114 60025
                 T02390228 10289 20233 51006 =
2014-08-19 18:54 METAR KOFP 192254Z AUTO 06003KT 8SM FEW029 SCT049 BKN110 24/23 A2986 RMK AO2
                 RAB25E40 SLP111 P0000 T02440228 =
2014-08-19 17:54 METAR KOFP 192154Z AUTO 00000KT 10SM BKN060 OVC070 25/22 A2988 RMK AO2 RAB30E48
                 SLP115 P0001 T02500222 =
2014-08-19 16:54 METAR KOFP 192054Z AUTO 00000KT 10SM SCT060 BKN080 BKN100 26/23 A2986 RMK AO2
                 SLP108 60024 T02610228 58001 =
2014-08-19 15:54 METAR KOFP 191954Z AUTO VRB03KT 9SM SCT043 OVC075 26/24 A2986 RMK AO2 RAE31
                 SLP109 P0001 T02610239 =
2014-08-19 15:03 METAR KOFP 191903Z AUTO 08005KT 3SM -RA BR FEW017 SCT032 OVC043 23/22 A2986 RMK
                 AO2 P0001 T02330222 =
2014-08-19 15:01 METAR KOFP 191901Z AUTO 09004KT 1 1/2SM -RA BR FEW017 SCT033 OVC043 23/22 A2986
                 RMK AO2 P0001 T02330222 =
2014-08-19 14:54 METAR KOFP 191854Z AUTO 07009KT 3/4SM +RA BR FEW015 BKN033 OVC043 23/22 A2986
                 RMK AO2 RAB49 SLP110 P0023 T02330217 =
2014-08-19 14:50 METAR KOFP 191850Z AUTO 07010KT 1 1/4SM +RA FEW015 BKN033 OVC043 24/22 A2986 RMK
                 AO2 RAB49 P0016 =
2014-08-19 14:33 METAR KOFP 191833Z AUTO 07007KT 050V120 10SM SCT029 BKN035 OVC070 27/22 A2986
                 RMK AO2 T02670217 =
2014-08-19 14:22 METAR KOFP 191822Z AUTO VRB05KT 10SM BKN029 BKN042 BKN070 28/21 A2986 RMK AO2
                 T02830211 =
2014-08-19 13:54 METAR KOFP 191754Z AUTO 31004KT 10SM SCT031 28/21 A2986 RMK AO2 SLP108 T02830211
                 10289 20217 58004 =
2014-08-19 12:54 METAR KOFP 191654Z AUTO VRB03KT 10SM FEW028 FEW038 BKN055 27/21 A2986 RMK AO2
                 SLP111 T02720211 =
2014-08-19 12:05 METAR KOFP 191605Z AUTO 00000KT 10SM SCT024 SCT034 28/21 A2987 RMK AO2 T02780206
                 =
2014-08-19 11:54 METAR KOFP 191554Z AUTO 00000KT 10SM BKN024 27/21 A2987 RMK AO2 SLP113 T02720206
                 =
2014-08-19 11:27 METAR KOFP 191527Z AUTO VRB04KT 10SM SCT021 27/21 A2987 RMK AO2 T02720206 =
2014-08-19 10:54 METAR KOFP 191454Z AUTO 03004KT 10SM BKN016 BKN023 26/21 A2987 RMK AO2 SLP113
                 T02560206 51010 =
2014-08-19 10:41 METAR KOFP 191441Z AUTO 00000KT 10SM BKN016 26/21 A2988 RMK AO2 T02560206 =
2014-08-19 09:54 METAR KOFP 191354Z AUTO 00000KT 9SM OVC010 23/21 A2987 RMK AO2 CIG 008V014
                 SLP113 T02330211 =
2014-08-19 08:54 METAR KOFP 191254Z AUTO 35003KT 7SM OVC006 23/21 A2985 RMK AO2 SLP106 T02280211
                 =
2014-08-19 08:44 METAR KOFP 191244Z AUTO 00000KT 7SM OVC006 22/21 A2985 RMK AO2 CIG 004V008
                 T02220206 =
2014-08-19 07:54 METAR KOFP 191154Z AUTO 01003KT 4SM BR OVC003 22/21 A2984 RMK AO2 SLP103 70001
                 T02170206 10217 20206 50012 =
2014-08-19 07:51 METAR KOFP 191151Z AUTO 35003KT 4SM BR OVC002 22/21 A2984 RMK AO2 =
2014-08-19 07:24 METAR KOFP 191124Z AUTO VRB03KT 2SM BR OVC002 21/20 A2984 RMK AO2 T02060200 =
2014-08-19 07:04 METAR KOFP 191104Z AUTO 00000KT 1SM BR OVC002 21/20 A2983 RMK AO2 T02060200 =
2014-08-19 06:54 METAR KOFP 191054Z AUTO 00000KT 3/4SM BR OVC002 21/20 A2983 RMK AO2 SLP098
                 T02060200 =

Support USWX by starting your Amazon purchase here.